createdAt,value
2018-02-18T00:00:04.194Z,44.07
2018-02-18T00:02:33.084Z,45.80
2018-02-18T00:05:01.628Z,44.17
2018-02-18T00:07:30.270Z,43.17
2018-02-18T00:09:58.896Z,46.13
2018-02-18T00:12:27.468Z,45.37
2018-02-18T00:14:57.609Z,41.63
2018-02-18T00:17:26.208Z,41.33
2018-02-18T00:19:54.769Z,48.30
2018-02-18T00:22:23.325Z,42.87
2018-02-18T00:24:52.864Z,49.57
2018-02-18T00:27:21.420Z,48.33
2018-02-18T00:29:50.736Z,45.97
2018-02-18T00:32:19.352Z,43.93
2018-02-18T00:34:47.904Z,48.63
2018-02-18T00:37:17.216Z,48.63
2018-02-18T00:39:45.844Z,53.77
2018-02-18T00:42:14.425Z,50.63
2018-02-18T00:44:42.972Z,61.23
2018-02-18T00:47:11.604Z,72.07
2018-02-18T00:49:40.180Z,75.67
2018-02-18T00:52:08.744Z,69.13
2018-02-18T00:54:37.349Z,73.63
2018-02-18T00:57:05.947Z,70.80
2018-02-18T00:59:35.264Z,61.63
2018-02-18T01:02:04.093Z,71.27
2018-02-18T01:04:32.641Z,59.40
2018-02-18T01:07:01.188Z,54.97
2018-02-18T01:09:29.929Z,50.87
2018-02-18T01:11:58.484Z,47.30
2018-02-18T01:14:27.796Z,58.80
2018-02-18T01:16:57.156Z,62.67
2018-02-18T01:19:25.740Z,49.93
2018-02-18T01:21:54.305Z,50.50
2018-02-18T01:24:23.095Z,57.00
2018-02-18T01:26:51.644Z,61.23
2018-02-18T01:29:20.192Z,72.60
2018-02-18T01:31:49.036Z,77.23
2018-02-18T01:34:17.588Z,78.43
2018-02-18T01:36:46.905Z,74.70
2018-02-18T01:39:15.648Z,81.83
2018-02-18T01:41:44.204Z,91.60
2018-02-18T01:44:12.752Z,75.90
2018-02-18T01:46:41.495Z,71.37
2018-02-18T01:49:10.058Z,68.67
2018-02-18T01:51:38.612Z,78.10
2018-02-18T01:54:07.517Z,80.10
2018-02-18T01:56:36.068Z,78.70
2018-02-18T01:59:05.383Z,82.07
2018-02-18T02:01:34.073Z,95.83
2018-02-18T02:04:02.625Z,84.27
2018-02-18T02:06:31.945Z,82.97
2018-02-18T02:09:00.540Z,72.37
2018-02-18T02:11:29.096Z,71.27
2018-02-18T02:13:58.412Z,83.37
2018-02-18T02:16:27.229Z,79.50
2018-02-18T02:18:55.784Z,76.63
2018-02-18T02:21:24.330Z,73.43
2018-02-18T02:23:53.089Z,80.83
2018-02-18T02:26:21.648Z,76.77
2018-02-18T02:28:50.205Z,65.00
2018-02-18T02:31:19.664Z,80.13
2018-02-18T02:33:48.220Z,71.20
2018-02-18T02:36:16.777Z,74.70
2018-02-18T02:38:45.435Z,85.33
2018-02-18T02:41:13.996Z,85.63
2018-02-18T02:43:42.541Z,98.60
2018-02-18T02:46:11.144Z,112.50
2018-02-18T02:48:39.710Z,111.87
2018-02-18T02:51:08.260Z,110.03
2018-02-18T02:53:38.521Z,142.83
2018-02-18T02:56:07.073Z,119.27
2018-02-18T02:58:36.393Z,117.43
2018-02-18T03:01:05.015Z,87.13
2018-02-18T03:03:33.564Z,97.63
2018-02-18T03:06:02.112Z,86.50
2018-02-18T03:08:30.969Z,83.83
2018-02-18T03:10:59.517Z,79.40
2018-02-18T03:13:28.068Z,88.63
2018-02-18T03:15:56.676Z,82.47
2018-02-18T03:18:25.229Z,102.13
2018-02-18T03:20:53.808Z,128.23
2018-02-18T03:23:22.525Z,117.97
2018-02-18T03:25:51.841Z,97.73
2018-02-18T03:28:20.397Z,89.53
2018-02-18T03:30:49.964Z,86.27
2018-02-18T03:33:18.516Z,78.37
2018-02-18T03:35:47.072Z,89.40
2018-02-18T03:38:16.635Z,83.90
2018-02-18T03:40:45.183Z,84.57
2018-02-18T03:43:13.732Z,84.70
2018-02-18T03:45:43.109Z,83.30
2018-02-18T03:48:11.658Z,98.63
2018-02-18T03:50:40.278Z,87.30
2018-02-18T03:53:09.048Z,106.77
2018-02-18T03:55:37.601Z,80.77
2018-02-18T03:58:06.916Z,75.80
2018-02-18T04:00:35.716Z,85.60
2018-02-18T04:03:04.264Z,75.63
2018-02-18T04:05:33.576Z,82.43
2018-02-18T04:08:02.164Z,74.70
2018-02-18T04:10:30.710Z,73.07
2018-02-18T04:12:59.261Z,72.73
2018-02-18T04:15:27.880Z,86.27
2018-02-18T04:17:57.932Z,92.90
2018-02-18T04:20:26.488Z,85.40
2018-02-18T04:22:55.857Z,75.57
2018-02-18T04:25:24.404Z,85.50
2018-02-18T04:27:52.953Z,83.83
2018-02-18T04:30:22.617Z,73.97
2018-02-18T04:32:51.931Z,79.50
2018-02-18T04:35:20.481Z,78.57
2018-02-18T04:37:49.168Z,80.20
2018-02-18T04:40:17.713Z,75.33
2018-02-18T04:42:47.025Z,70.27
2018-02-18T04:45:16.580Z,75.47
2018-02-18T04:47:45.128Z,78.57
2018-02-18T04:50:13.676Z,71.43
2018-02-18T04:52:42.280Z,74.23
2018-02-18T04:55:11.580Z,70.47
2018-02-18T04:57:40.905Z,111.23
2018-02-18T05:00:09.509Z,111.67
2018-02-18T05:02:38.056Z,128.60
2018-02-18T05:05:07.372Z,129.10
2018-02-18T05:07:35.973Z,117.07
2018-02-18T05:10:04.528Z,108.50
2018-02-18T05:12:33.072Z,100.00
2018-02-18T05:15:01.760Z,92.57
2018-02-18T05:17:30.316Z,103.83
2018-02-18T05:19:58.866Z,99.73
2018-02-18T05:22:27.560Z,82.30
2018-02-18T05:24:56.108Z,107.83
2018-02-18T05:27:25.432Z,161.47
2018-02-18T05:29:55.798Z,183.67
2018-02-18T05:32:25.123Z,160.60
2018-02-18T05:34:53.677Z,154.13
2018-02-18T05:37:22.268Z,179.70
2018-02-18T05:39:50.821Z,172.93
2018-02-18T05:42:19.367Z,170.10
2018-02-18T05:44:48.736Z,229.73
2018-02-18T05:47:17.292Z,142.37
2018-02-18T05:49:45.840Z,123.40
2018-02-18T05:52:15.212Z,103.37
2018-02-18T05:54:43.780Z,132.90
2018-02-18T05:57:12.332Z,227.60
2018-02-18T05:59:40.932Z,270.63
2018-02-18T06:02:09.489Z,196.70
2018-02-18T06:04:38.808Z,173.90
2018-02-18T06:07:07.416Z,162.60
2018-02-18T06:09:35.964Z,170.20
2018-02-18T06:12:04.517Z,145.70
2018-02-18T06:14:34.085Z,155.47
2018-02-18T06:17:02.636Z,141.83
2018-02-18T06:19:31.184Z,284.60
2018-02-18T06:21:59.789Z,203.87
2018-02-18T06:24:28.340Z,192.47
2018-02-18T06:26:56.894Z,181.17
2018-02-18T06:29:25.893Z,167.20
2018-02-18T06:31:54.445Z,195.33
2018-02-18T06:34:22.999Z,123.97
2018-02-18T06:36:52.381Z,115.63
2018-02-18T06:39:20.936Z,123.90
2018-02-18T06:41:49.533Z,104.93
2018-02-18T06:44:18.417Z,107.87
2018-02-18T06:46:46.964Z,100.37
2018-02-18T06:49:15.512Z,105.83
2018-02-18T06:51:44.473Z,97.00
2018-02-18T06:54:13.017Z,98.63
2018-02-18T06:56:41.573Z,193.97
2018-02-18T06:59:10.265Z,175.53
2018-02-18T07:01:39.588Z,219.67
2018-02-18T07:04:08.136Z,117.17
2018-02-18T07:06:36.829Z,115.87
2018-02-18T07:09:05.441Z,171.00
2018-02-18T07:11:33.993Z,158.03
2018-02-18T07:14:02.597Z,143.80
2018-02-18T07:16:31.916Z,195.73
2018-02-18T07:19:00.465Z,191.73
2018-02-18T07:21:30.672Z,155.77
2018-02-18T07:23:59.237Z,148.63
2018-02-18T07:26:27.788Z,144.63
2018-02-18T07:28:56.610Z,163.27
2018-02-18T07:31:25.168Z,140.30
2018-02-18T07:33:53.725Z,132.93
2018-02-18T07:36:23.275Z,164.80
2018-02-18T07:38:51.824Z,149.90
2018-02-18T07:41:20.376Z,97.30
2018-02-18T07:43:49.236Z,101.50
2018-02-18T07:46:17.792Z,95.90
2018-02-18T07:48:46.344Z,81.33
2018-02-18T07:51:15.711Z,87.23
2018-02-18T07:53:44.262Z,83.93
2018-02-18T07:56:12.816Z,69.40
2018-02-18T07:58:42.189Z,77.20
2018-02-18T08:01:10.748Z,78.23
2018-02-18T08:03:40.001Z,72.07
2018-02-18T08:06:09.388Z,70.40
2018-02-18T08:08:38.708Z,66.83
2018-02-18T08:11:08.029Z,62.30
2018-02-18T08:13:36.664Z,53.13
2018-02-18T08:16:05.240Z,55.10
2018-02-18T08:18:33.811Z,82.70
2018-02-18T08:21:02.449Z,65.23
2018-02-18T08:23:31.001Z,71.37
2018-02-18T08:25:59.558Z,51.83
2018-02-18T08:28:29.063Z,53.00
2018-02-18T08:30:57.614Z,52.93
2018-02-18T08:33:26.164Z,56.00
2018-02-18T08:35:55.828Z,57.17
2018-02-18T08:38:24.377Z,48.93
2018-02-18T08:40:53.709Z,47.20
2018-02-18T08:43:22.461Z,43.70
2018-02-18T08:45:51.016Z,52.67
2018-02-18T08:48:19.570Z,46.17
2018-02-18T08:50:48.169Z,45.73
2018-02-18T08:53:16.717Z,46.37
2018-02-18T08:55:45.258Z,44.20
2018-02-18T08:58:14.825Z,40.93
2018-02-18T09:00:43.381Z,46.20
2018-02-18T09:03:11.974Z,46.73
2018-02-18T09:05:40.725Z,46.50
2018-02-18T09:08:10.049Z,58.07
2018-02-18T09:10:38.604Z,44.67
2018-02-18T09:13:08.375Z,43.60
2018-02-18T09:15:36.930Z,43.93
2018-02-18T09:18:05.493Z,40.33
2018-02-18T09:20:35.028Z,42.97
2018-02-18T09:23:03.585Z,48.23
2018-02-18T09:25:32.137Z,58.10
2018-02-18T09:28:00.754Z,66.83
2018-02-18T09:30:29.316Z,49.07
2018-02-18T09:32:58.636Z,46.97
2018-02-18T09:35:27.240Z,48.03
2018-02-18T09:37:55.804Z,45.00
2018-02-18T09:40:24.365Z,51.10
2018-02-18T09:42:53.848Z,43.43
2018-02-18T09:45:23.173Z,47.90
2018-02-18T09:47:52.500Z,44.40
2018-02-18T09:50:22.077Z,48.13
2018-02-18T09:52:50.632Z,50.80
2018-02-18T09:55:19.185Z,104.57
2018-02-18T09:57:47.881Z,80.10
2018-02-18T10:02:50.190Z,57.37
2018-02-18T10:05:18.766Z,45.20
2018-02-18T10:07:47.330Z,44.57
2018-02-18T10:10:16.041Z,44.47
2018-02-18T10:12:44.603Z,38.50
2018-02-18T10:15:13.169Z,40.23
2018-02-18T10:17:41.989Z,43.73
2018-02-18T10:20:10.549Z,40.10
2018-02-18T10:22:39.109Z,51.57
2018-02-18T10:25:08.509Z,60.27
2018-02-18T10:27:37.064Z,41.67
2018-02-18T10:30:05.629Z,39.80
2018-02-18T10:32:34.281Z,39.83
2018-02-18T10:35:02.841Z,39.80
2018-02-18T10:37:32.173Z,43.50
2018-02-18T10:40:00.801Z,40.23
2018-02-18T10:42:29.383Z,42.40
2018-02-18T10:44:57.948Z,44.17
2018-02-18T10:47:26.556Z,38.60
2018-02-18T10:49:55.121Z,39.37
2018-02-18T10:52:23.681Z,41.93
2018-02-18T10:54:52.389Z,70.80
2018-02-18T10:57:20.954Z,86.07
2018-02-18T10:59:49.513Z,42.90
2018-02-18T11:02:18.137Z,44.40
2018-02-18T11:04:46.700Z,53.13
2018-02-18T11:07:15.264Z,43.00
2018-02-18T11:09:44.153Z,45.37
2018-02-18T11:12:12.721Z,306.83
2018-02-18T11:14:41.332Z,166.97
2018-02-18T11:17:09.950Z,39.73
2018-02-18T11:19:39.277Z,963.50
2018-02-18T11:22:07.840Z,101.23
2018-02-18T11:24:37.210Z,43.13
2018-02-18T11:27:05.774Z,41.60
2018-02-18T11:29:34.345Z,47.60
2018-02-18T11:32:02.950Z,211.03
2018-02-18T11:34:31.519Z,48.47
2018-02-18T11:37:00.076Z,43.17
2018-02-18T11:39:29.007Z,41.87
2018-02-18T11:41:57.672Z,42.33
2018-02-18T11:44:26.249Z,42.53
2018-02-18T11:46:55.207Z,38.27
2018-02-18T11:49:23.780Z,40.70
2018-02-18T11:51:53.142Z,39.67
2018-02-18T11:54:21.938Z,39.97
2018-02-18T11:56:50.526Z,37.77
2018-02-18T11:59:19.097Z,36.10
2018-02-18T12:01:47.800Z,38.07
2018-02-18T12:04:16.348Z,38.83
2018-02-18T12:06:44.897Z,40.33
2018-02-18T12:09:14.373Z,38.03
2018-02-18T12:11:42.957Z,39.40
2018-02-18T12:14:11.520Z,40.73
2018-02-18T12:16:40.304Z,40.73
2018-02-18T12:19:08.857Z,44.30
2018-02-18T12:21:37.441Z,34.27
2018-02-18T12:24:06.141Z,59.57
2018-02-18T12:26:34.704Z,36.40
2018-02-18T12:29:03.269Z,33.37
2018-02-18T12:31:32.653Z,36.63
2018-02-18T12:34:01.217Z,35.77
2018-02-18T12:36:30.533Z,37.33
2018-02-18T12:38:59.138Z,38.87
2018-02-18T12:41:35.052Z,36.90
2018-02-18T12:44:03.836Z,39.47
2018-02-18T12:46:32.392Z,41.27
2018-02-18T12:49:00.948Z,35.17
2018-02-18T12:51:30.518Z,37.30
2018-02-18T12:53:59.120Z,37.93
2018-02-18T12:56:27.693Z,38.43
2018-02-18T12:58:56.385Z,35.87
2018-02-18T13:01:24.962Z,43.60
2018-02-18T13:03:53.535Z,43.43
2018-02-18T13:06:22.148Z,38.67
2018-02-18T13:08:50.708Z,37.80
2018-02-18T13:11:19.272Z,37.43
2018-02-18T13:13:47.889Z,41.63
2018-02-18T13:16:16.466Z,36.90
2018-02-18T13:18:45.032Z,63.47
2018-02-18T13:21:13.826Z,41.83
2018-02-18T13:23:42.377Z,47.67
2018-02-18T13:26:10.929Z,49.90
2018-02-18T13:28:40.697Z,50.70
2018-02-18T13:31:09.252Z,52.47
2018-02-18T13:33:37.812Z,42.30
2018-02-18T13:36:07.272Z,37.77
2018-02-18T13:38:35.828Z,45.17
2018-02-18T13:41:04.396Z,43.87
2018-02-18T13:43:33.014Z,41.60
2018-02-18T13:46:01.568Z,52.37
2018-02-18T13:48:30.440Z,45.07
2018-02-18T13:50:59.962Z,66.30
2018-02-18T13:53:28.521Z,42.33
2018-02-18T13:55:57.964Z,50.90
2018-02-18T13:58:26.977Z,55.93
2018-02-18T14:00:55.525Z,66.63
2018-02-18T14:03:24.082Z,52.63
2018-02-18T14:05:53.461Z,53.50
2018-02-18T14:08:22.030Z,49.57
2018-02-18T14:10:50.585Z,56.73
2018-02-18T14:13:19.469Z,56.90
2018-02-18T14:15:48.030Z,56.03
2018-02-18T14:18:17.417Z,47.50
2018-02-18T14:20:46.280Z,55.17
2018-02-18T14:23:14.832Z,67.80
2018-02-18T14:25:43.390Z,54.60
2018-02-18T14:28:12.757Z,50.73
2018-02-18T14:30:41.319Z,51.03
2018-02-18T14:33:09.881Z,77.60
2018-02-18T14:35:39.560Z,289.30
2018-02-18T14:38:08.876Z,92.87
2018-02-18T14:40:38.385Z,69.27
2018-02-18T14:43:24.550Z,312.03
2018-02-18T14:46:10.857Z,99.10
2018-02-18T14:48:57.865Z,71.43
2018-02-18T14:51:44.135Z,117.57
2018-02-18T14:54:30.269Z,135.50
2018-02-18T14:57:17.319Z,563.40
2018-02-18T14:59:45.885Z,428.13
2018-02-18T15:02:14.445Z,577.20
2018-02-18T15:04:43.049Z,200.30
2018-02-18T15:07:11.634Z,171.73
2018-02-18T15:09:40.961Z,59.67
2018-02-18T15:12:09.662Z,48.23
2018-02-18T15:14:38.221Z,112.20
2018-02-18T15:17:06.774Z,52.90
2018-02-18T15:19:36.141Z,72.60
2018-02-18T15:22:04.721Z,66.33
2018-02-18T15:24:33.277Z,64.33
2018-02-18T15:27:02.189Z,90.93
2018-02-18T15:29:30.746Z,68.90
2018-02-18T15:31:59.305Z,56.27
2018-02-18T15:34:28.988Z,62.93
2018-02-18T15:36:57.549Z,77.83
2018-02-18T15:39:26.144Z,103.40
2018-02-18T15:41:54.748Z,96.37
2018-02-18T15:44:23.304Z,138.73
2018-02-18T15:46:51.866Z,102.13
2018-02-18T15:49:20.613Z,87.33
2018-02-18T15:51:49.934Z,88.83
2018-02-18T15:54:18.485Z,96.87
2018-02-18T15:56:48.057Z,99.60
2018-02-18T15:59:16.617Z,114.73
2018-02-18T16:01:45.176Z,95.43
2018-02-18T16:04:13.776Z,117.67
2018-02-18T16:06:42.337Z,135.27
2018-02-18T16:09:10.905Z,139.63
2018-02-18T16:11:39.524Z,168.07
2018-02-18T16:14:08.076Z,189.57
2018-02-18T16:16:36.688Z,202.17
2018-02-18T16:19:05.293Z,192.30
2018-02-18T16:21:33.854Z,196.70
2018-02-18T16:24:02.413Z,205.97
2018-02-18T16:26:31.220Z,256.40
2018-02-18T16:28:59.785Z,260.77
2018-02-18T16:31:28.349Z,252.10
2018-02-18T16:33:56.961Z,235.67
2018-02-18T16:36:25.521Z,239.20
2018-02-18T16:38:54.850Z,257.47
2018-02-18T16:41:23.457Z,247.87
2018-02-18T16:43:52.032Z,264.83
2018-02-18T16:46:20.601Z,339.80
2018-02-18T16:48:49.313Z,319.23
2018-02-18T16:51:17.885Z,308.03
2018-02-18T16:53:47.209Z,327.97
2018-02-18T16:56:15.820Z,360.27
2018-02-18T16:58:45.146Z,405.67
2018-02-18T17:01:13.709Z,398.40
2018-02-18T17:03:42.313Z,408.40
2018-02-18T17:06:10.874Z,401.67
2018-02-18T17:08:39.437Z,409.37
2018-02-18T17:11:08.820Z,421.40
2018-02-18T17:13:37.392Z,441.83
2018-02-18T17:16:06.721Z,449.70
2018-02-18T17:18:36.207Z,437.23
2018-02-18T17:21:05.592Z,419.73
2018-02-18T17:23:34.156Z,431.13
2018-02-18T17:26:02.972Z,430.17
2018-02-18T17:28:31.538Z,495.77
2018-02-18T17:31:00.097Z,535.50
2018-02-18T17:33:28.800Z,503.63
2018-02-18T17:35:57.368Z,488.63
2018-02-18T17:38:25.928Z,442.90
2018-02-18T17:40:55.310Z,450.03
2018-02-18T17:43:23.876Z,422.63
2018-02-18T17:45:52.469Z,432.03
2018-02-18T17:48:21.345Z,441.37
2018-02-18T17:50:49.909Z,424.93
2018-02-18T17:53:18.497Z,378.67
2018-02-18T17:55:47.109Z,373.10
2018-02-18T17:58:15.680Z,494.47
2018-02-18T18:00:44.237Z,396.40
2018-02-18T18:03:13.717Z,308.93
2018-02-18T18:05:42.282Z,303.63
2018-02-18T18:08:11.612Z,674.97
2018-02-18T18:10:40.225Z,633.70
2018-02-18T18:13:08.785Z,801.37
2018-02-18T18:15:37.346Z,711.77
2018-02-18T18:18:06.907Z,648.13
2018-02-18T18:20:35.471Z,683.97
2018-02-18T18:23:04.037Z,699.47
2018-02-18T18:25:32.859Z,537.33
2018-02-18T18:28:01.426Z,465.83
2018-02-18T18:30:29.986Z,384.80
2018-02-18T18:32:58.663Z,375.93
2018-02-18T18:35:27.993Z,359.70
2018-02-18T18:37:56.557Z,348.67
2018-02-18T18:40:25.182Z,298.10
2018-02-18T18:42:53.745Z,243.70
2018-02-18T18:45:22.315Z,209.87
2018-02-18T18:47:51.137Z,195.97
2018-02-18T18:50:19.700Z,185.50
2018-02-18T18:52:48.257Z,185.87
2018-02-18T18:55:17.630Z,222.63
2018-02-18T18:57:46.196Z,422.23
2018-02-18T19:00:14.763Z,633.47
2018-02-18T19:02:43.369Z,645.87
2018-02-18T19:05:11.937Z,473.70
2018-02-18T19:07:40.501Z,430.37
2018-02-18T19:10:09.109Z,398.07
2018-02-18T19:12:37.677Z,419.23
2018-02-18T19:15:06.240Z,601.07
2018-02-18T19:17:34.851Z,446.57
2018-02-18T19:20:03.405Z,215.13
2018-02-18T19:22:31.961Z,201.83
2018-02-18T19:25:01.473Z,196.17
2018-02-18T19:27:30.809Z,176.00
2018-02-18T19:29:59.366Z,155.17
2018-02-18T19:32:28.918Z,187.87
2018-02-18T19:34:57.513Z,261.20
2018-02-18T19:37:26.087Z,365.10
2018-02-18T19:39:54.822Z,417.17
2018-02-18T19:42:24.201Z,417.60
2018-02-18T19:44:53.544Z,233.03
2018-02-18T19:47:22.169Z,239.40
2018-02-18T19:49:50.763Z,191.07
2018-02-18T19:52:19.335Z,170.90
2018-02-18T19:54:47.941Z,186.23
2018-02-18T19:57:17.277Z,229.13
2018-02-18T19:59:45.840Z,226.07
2018-02-18T20:02:15.228Z,489.93
2018-02-18T20:04:43.790Z,316.80
2018-02-18T20:07:12.361Z,273.03
2018-02-18T20:09:41.117Z,244.13
2018-02-18T20:12:09.681Z,194.17
2018-02-18T20:14:38.245Z,319.40
2018-02-18T20:17:07.173Z,246.83
2018-02-18T20:19:35.755Z,353.90
2018-02-18T20:22:04.318Z,281.37
2018-02-18T20:24:32.926Z,199.07
2018-02-18T20:27:01.505Z,205.07
2018-02-18T20:29:30.105Z,218.60
2018-02-18T20:31:58.809Z,316.43
2018-02-18T20:34:28.489Z,189.23
2018-02-18T20:36:57.052Z,187.23
2018-02-18T20:39:25.676Z,196.40
2018-02-18T20:41:54.284Z,172.53
2018-02-18T20:44:23.634Z,180.70
2018-02-18T20:46:52.627Z,399.93
2018-02-18T20:49:21.188Z,312.93
2018-02-18T20:51:49.748Z,246.73
2018-02-18T20:54:18.356Z,261.87
2018-02-18T20:56:46.917Z,255.43
2018-02-18T20:59:15.476Z,276.17
2018-02-18T21:01:44.950Z,227.73
2018-02-18T21:04:13.505Z,288.00
2018-02-18T21:06:42.065Z,265.27
2018-02-18T21:09:11.445Z,181.97
2018-02-18T21:11:40.002Z,246.87
2018-02-18T21:14:08.568Z,177.63
2018-02-18T21:16:37.177Z,160.50
2018-02-18T21:19:05.726Z,156.57
2018-02-18T21:21:34.297Z,199.97
2018-02-18T21:24:03.118Z,177.37
2018-02-18T21:26:31.685Z,177.40
2018-02-18T21:29:00.245Z,275.53
2018-02-18T21:31:28.846Z,234.07
2018-02-18T21:33:57.408Z,171.73
2018-02-18T21:36:25.968Z,175.10
2018-02-18T21:38:54.574Z,174.57
2018-02-18T21:41:23.128Z,172.87
2018-02-18T21:43:51.681Z,166.77
2018-02-18T21:46:20.285Z,162.73
2018-02-18T21:48:48.858Z,168.63
2018-02-18T21:51:17.427Z,177.97
2018-02-18T21:53:46.025Z,144.70
2018-02-18T21:56:14.580Z,160.37
2018-02-18T21:58:43.145Z,186.10
2018-02-18T22:01:11.759Z,168.33
2018-02-18T22:03:40.312Z,165.03
2018-02-18T22:06:08.860Z,172.13
2018-02-18T22:08:38.522Z,177.83
2018-02-18T22:11:07.084Z,178.63
2018-02-18T22:13:35.636Z,161.70
2018-02-18T22:16:04.241Z,157.40
2018-02-18T22:18:33.557Z,156.83
2018-02-18T22:21:02.125Z,129.40
2018-02-18T22:23:31.489Z,148.40
2018-02-18T22:26:00.040Z,165.23
2018-02-18T22:28:28.592Z,165.07
2018-02-18T22:30:59.067Z,172.07
2018-02-18T22:33:27.620Z,174.53
2018-02-18T22:35:56.172Z,203.07
2018-02-18T22:38:25.549Z,203.50
2018-02-18T22:40:54.112Z,204.63
2018-02-18T22:43:22.665Z,199.93
2018-02-18T22:45:51.286Z,207.73
2018-02-18T22:48:19.837Z,211.93
2018-02-18T22:50:48.399Z,211.80
2018-02-18T22:53:18.151Z,215.90
2018-02-18T22:55:46.712Z,218.67
2018-02-18T22:58:15.264Z,197.70
2018-02-18T23:00:45.464Z,219.80
2018-02-18T23:03:14.020Z,205.57
2018-02-18T23:05:48.173Z,207.27
2018-02-18T23:08:16.733Z,201.83
2018-02-18T23:10:45.286Z,211.70
2018-02-18T23:13:13.891Z,216.20
2018-02-18T23:15:42.444Z,202.10
2018-02-18T23:18:11.060Z,211.37
2018-02-18T23:20:57.332Z,208.07
2018-02-18T23:23:25.893Z,186.47
2018-02-18T23:25:55.248Z,172.13
2018-02-18T23:28:24.021Z,157.47
2018-02-18T23:30:52.582Z,166.50
2018-02-18T23:33:21.132Z,206.90
2018-02-18T23:35:50.606Z,173.47
2018-02-18T23:38:19.157Z,183.33
2018-02-18T23:40:47.709Z,185.33
2018-02-18T23:43:17.172Z,183.50
2018-02-18T23:45:45.724Z,184.87
2018-02-18T23:48:14.276Z,158.07
2018-02-18T23:50:42.885Z,149.33
2018-02-18T23:53:11.433Z,136.50
2018-02-18T23:55:39.988Z,129.57
2018-02-18T23:58:08.604Z,150.50
